aviador You're here:

KCVW Decoded Metar

in
Report Time2018-06-17 23:25:00
UTC Time2018-06-17 23:39:21
Flight Rules vfr VFR
Wind130° at 19 Gusting to 27 kt
W.Rank130° ranks 11
Current wind is above 130° avg. (9.4)
Visibility9999 m
Phenomena:N/A
Clouds:Few 032 Hf
Scattered 049 Hf
Broken 055 Hf
Expected CloudBase > 2,000 ft AGL from Temp-Dew spread
Ceiling5,500 ft
Temp28°C
Dew Point23°C (74% RH)
Heat Index31.2°C
AAT26.4°C
QNH1014 hPa
Raw Report
KCVW 172325Z AUTO 13019G27KT 9SM FEW032 SCT049 BKN055 28/23 A2995
RMK A01=

Extra information for KCVW:More info

Social comments